createdAt,value
2023-02-02T00:01:02.709Z,2.80
2023-02-02T00:03:51.240Z,3.17
2023-02-02T00:06:44.633Z,2.25
2023-02-02T00:09:32.618Z,2.90
2023-02-02T00:12:20.934Z,2.80
2023-02-02T00:15:03.241Z,2.22
2023-02-02T00:17:51.569Z,2.33
2023-02-02T00:20:36.340Z,2.72
2023-02-02T00:23:32.467Z,2.75
2023-02-02T00:26:15.633Z,2.33
2023-02-02T00:29:03.337Z,2.20
2023-02-02T00:31:55.307Z,2.38
2023-02-02T00:35:05.856Z,2.33
2023-02-02T00:38:02.870Z,2.28
2023-02-02T00:44:34.698Z,2.10
2023-02-02T00:47:31.738Z,2.63
2023-02-02T00:50:22.620Z,3.63
2023-02-02T00:53:10.381Z,2.55
2023-02-02T00:56:04.690Z,2.35
2023-02-02T00:58:46.139Z,2.35
2023-02-02T01:04:24.360Z,2.60
2023-02-02T01:07:08.604Z,2.13
2023-02-02T01:10:08.941Z,2.42
2023-02-02T01:13:01.593Z,2.13
2023-02-02T01:15:53.128Z,2.40
2023-02-02T01:18:36.758Z,2.20
2023-02-02T01:21:25.234Z,2.70
2023-02-02T01:24:18.278Z,3.05
2023-02-02T01:27:06.399Z,2.05
2023-02-02T01:29:52.495Z,1.70
2023-02-02T01:32:53.593Z,1.80
2023-02-02T01:35:36.672Z,1.50
2023-02-02T01:38:28.288Z,1.02
2023-02-02T01:41:15.012Z,1.15
2023-02-02T01:44:10.514Z,1.00
2023-02-02T01:46:51.462Z,1.20
2023-02-02T01:49:41.055Z,1.10
2023-02-02T01:52:28.697Z,0.98
2023-02-02T01:55:20.462Z,1.20
2023-02-02T01:58:07.234Z,1.00
2023-02-02T02:00:58.882Z,1.13
2023-02-02T02:03:48.099Z,1.70
2023-02-02T02:06:37.225Z,0.98
2023-02-02T02:09:23.883Z,0.93
2023-02-02T02:15:22.471Z,1.10
2023-02-02T02:18:42.514Z,1.25
2023-02-02T02:22:19.551Z,1.58
2023-02-02T02:25:57.902Z,1.38
2023-02-02T02:29:21.929Z,1.38
2023-02-02T02:32:14.011Z,1.45
2023-02-02T02:35:09.123Z,1.70
2023-02-02T02:38:24.105Z,1.85
2023-02-02T02:41:17.474Z,1.55
2023-02-02T02:44:13.481Z,1.80
2023-02-02T02:47:04.198Z,1.92
2023-02-02T02:50:00.602Z,2.17
2023-02-02T02:52:45.463Z,1.95
2023-02-02T02:55:39.232Z,2.25
2023-02-02T02:58:42.856Z,2.10
2023-02-02T03:01:55.538Z,2.20
2023-02-02T03:05:06.759Z,2.95
2023-02-02T03:08:05.335Z,2.60
2023-02-02T03:10:48.462Z,2.15
2023-02-02T03:13:36.655Z,2.35
2023-02-02T03:16:19.592Z,2.70
2023-02-02T03:19:08.226Z,2.35
2023-02-02T03:21:50.379Z,1.95
2023-02-02T03:24:38.628Z,2.60
2023-02-02T03:27:26.598Z,2.72
2023-02-02T03:30:07.792Z,2.75
2023-02-02T03:32:53.365Z,3.00
2023-02-02T03:35:51.339Z,2.47
2023-02-02T03:38:50.217Z,2.72
2023-02-02T03:41:41.479Z,2.88
2023-02-02T03:44:24.676Z,2.47
2023-02-02T03:47:17.439Z,2.33
2023-02-02T03:49:58.372Z,2.42
2023-02-02T03:52:46.724Z,2.75
2023-02-02T03:55:31.513Z,2.53
2023-02-02T03:58:21.035Z,2.45
2023-02-02T04:01:06.257Z,2.72
2023-02-02T04:03:54.516Z,2.88
2023-02-02T04:06:34.665Z,2.75
2023-02-02T04:09:22.684Z,2.72
2023-02-02T04:12:05.013Z,2.60
2023-02-02T04:14:53.363Z,2.65
2023-02-02T04:17:36.176Z,2.15
2023-02-02T04:20:27.425Z,2.33
2023-02-02T04:23:13.545Z,2.92
2023-02-02T04:26:01.696Z,2.30
2023-02-02T04:28:43.358Z,2.70
2023-02-02T04:31:34.483Z,2.38
2023-02-02T04:34:13.929Z,2.42
2023-02-02T04:37:00.876Z,2.20
2023-02-02T04:39:48.004Z,2.25
2023-02-02T04:42:27.866Z,2.63
2023-02-02T04:45:14.876Z,2.38
2023-02-02T04:47:54.931Z,2.15
2023-02-02T04:50:41.893Z,2.22
2023-02-02T04:53:21.935Z,2.53
2023-02-02T04:56:14.854Z,2.45
2023-02-02T04:58:56.184Z,2.50
2023-02-02T05:04:22.962Z,2.53
2023-02-02T05:07:09.886Z,2.35
2023-02-02T05:09:56.880Z,2.28
2023-02-02T05:12:43.924Z,2.30
2023-02-02T05:15:25.089Z,2.20
2023-02-02T05:18:05.415Z,2.35
2023-02-02T05:20:51.861Z,2.33
2023-02-02T05:23:38.903Z,2.13
2023-02-02T05:26:23.974Z,2.65
2023-02-02T05:29:12.861Z,2.60
2023-02-02T05:31:52.980Z,2.22
2023-02-02T05:34:39.866Z,2.53
2023-02-02T05:37:26.879Z,3.05
2023-02-02T05:40:14.879Z,2.95
2023-02-02T05:42:54.941Z,2.67
2023-02-02T05:45:41.893Z,2.08
2023-02-02T05:48:21.922Z,2.60
2023-02-02T05:51:18.879Z,2.53
2023-02-02T05:54:00.904Z,2.55
2023-02-02T05:56:47.898Z,2.22
2023-02-02T05:59:29.224Z,2.28
2023-02-02T06:02:15.885Z,2.40
2023-02-02T06:04:56.008Z,2.97
2023-02-02T06:07:42.863Z,2.20
2023-02-02T06:10:29.910Z,2.10
2023-02-02T06:13:10.450Z,2.20
2023-02-02T06:15:57.002Z,2.08
2023-02-02T06:18:37.662Z,2.17
2023-02-02T06:21:25.875Z,1.98
2023-02-02T06:24:06.838Z,1.67
2023-02-02T06:29:40.888Z,2.10
2023-02-02T06:32:20.980Z,2.10
2023-02-02T06:35:07.897Z,2.03
2023-02-02T06:37:49.081Z,2.05
2023-02-02T06:40:35.877Z,2.20
2023-02-02T06:43:22.910Z,1.80
2023-02-02T06:46:03.520Z,2.00
2023-02-02T06:48:49.883Z,2.30
2023-02-02T06:51:36.956Z,2.30
2023-02-02T06:54:16.876Z,2.67
2023-02-02T06:56:57.401Z,2.17
2023-02-02T06:59:43.864Z,2.00
2023-02-02T07:02:30.892Z,3.17
2023-02-02T07:05:18.892Z,1.95
2023-02-02T07:07:59.389Z,2.92
2023-02-02T07:11:11.025Z,2.63
2023-02-02T07:13:55.208Z,2.03
2023-02-02T07:16:41.930Z,2.40
2023-02-02T07:19:21.926Z,2.85
2023-02-02T07:22:08.885Z,2.05
2023-02-02T07:24:48.957Z,2.90
2023-02-02T07:27:35.886Z,2.88
2023-02-02T07:30:17.149Z,3.22
2023-02-02T07:35:51.988Z,2.25
2023-02-02T07:38:40.844Z,2.42
2023-02-02T07:41:23.480Z,2.85
2023-02-02T07:44:13.666Z,2.38
2023-02-02T07:46:56.616Z,2.63
2023-02-02T07:49:38.938Z,2.42
2023-02-02T07:52:26.976Z,2.80
2023-02-02T07:55:15.202Z,2.25
2023-02-02T07:57:56.420Z,3.22
2023-02-02T08:03:30.948Z,2.30
2023-02-02T08:06:13.612Z,2.78
2023-02-02T08:09:00.912Z,2.13
2023-02-02T08:11:41.945Z,2.30
2023-02-02T08:14:29.582Z,2.20
2023-02-02T08:19:55.972Z,2.58
2023-02-02T08:22:42.938Z,2.33
2023-02-02T08:25:25.016Z,2.00
2023-02-02T08:28:07.178Z,2.33
2023-02-02T08:30:53.900Z,2.50
2023-02-02T08:33:34.399Z,2.30
2023-02-02T08:36:29.888Z,2.25
2023-02-02T08:39:25.892Z,2.17
2023-02-02T08:42:14.691Z,2.00
2023-02-02T08:46:01.532Z,2.58
2023-02-02T08:48:11.744Z,2.33
2023-02-02T08:51:00.503Z,2.80
2023-02-02T08:53:41.464Z,2.20
2023-02-02T08:56:30.067Z,2.10
2023-02-02T08:59:10.135Z,2.75
2023-02-02T09:01:56.954Z,2.00
2023-02-02T09:04:38.024Z,2.42
2023-02-02T09:07:28.037Z,1.92
2023-02-02T09:10:10.041Z,2.50
2023-02-02T09:13:03.366Z,2.00
2023-02-02T09:15:46.656Z,2.25
2023-02-02T09:18:38.697Z,2.17
2023-02-02T09:21:31.563Z,2.20
2023-02-02T09:24:24.618Z,2.65
2023-02-02T09:27:14.491Z,2.53
2023-02-02T09:30:04.082Z,2.78
2023-02-02T09:32:48.179Z,2.53
2023-02-02T09:35:28.367Z,2.47
2023-02-02T09:38:14.894Z,1.70
2023-02-02T09:41:01.903Z,1.92
2023-02-02T09:44:27.900Z,2.05
2023-02-02T09:47:20.525Z,2.20
2023-02-02T09:50:27.932Z,2.42
2023-02-02T09:53:18.265Z,2.20
2023-02-02T09:56:12.886Z,2.17
2023-02-02T09:59:18.850Z,2.38
2023-02-02T10:02:03.931Z,1.90
2023-02-02T10:04:56.881Z,1.90
2023-02-02T10:07:54.623Z,2.00
2023-02-02T10:10:43.095Z,2.72
2023-02-02T10:13:47.133Z,2.40
2023-02-02T10:16:28.497Z,1.65
2023-02-02T10:19:26.895Z,2.75
2023-02-02T10:22:24.881Z,2.33
2023-02-02T10:25:11.889Z,2.10
2023-02-02T10:28:25.877Z,2.60
2023-02-02T10:31:15.010Z,2.28
2023-02-02T10:34:25.878Z,2.58
2023-02-02T10:37:39.913Z,2.53
2023-02-02T10:40:52.886Z,2.05
2023-02-02T10:43:48.508Z,2.30
2023-02-02T10:46:55.901Z,2.30
2023-02-02T10:49:37.983Z,2.80
2023-02-02T10:52:24.923Z,2.22
2023-02-02T10:55:15.994Z,2.00
2023-02-02T10:57:59.913Z,2.30
2023-02-02T11:01:07.854Z,2.22
2023-02-02T11:03:47.911Z,2.50
2023-02-02T11:06:46.936Z,2.63
2023-02-02T11:09:40.911Z,1.55
2023-02-02T11:12:39.195Z,2.30
2023-02-02T11:15:44.356Z,2.45
2023-02-02T11:18:38.579Z,2.17
2023-02-02T11:21:41.495Z,2.95
2023-02-02T11:24:52.092Z,2.25
2023-02-02T11:27:44.905Z,2.20
2023-02-02T11:30:42.912Z,2.47
2023-02-02T11:33:49.891Z,2.13
2023-02-02T11:36:30.399Z,2.40
2023-02-02T11:39:29.877Z,2.05
2023-02-02T11:42:26.929Z,2.00
2023-02-02T11:45:06.966Z,2.13
2023-02-02T11:47:53.897Z,2.08
2023-02-02T11:50:41.900Z,1.85
2023-02-02T11:53:28.890Z,2.10
2023-02-02T11:56:15.962Z,2.10
2023-02-02T11:59:05.892Z,1.65
2023-02-02T12:01:46.025Z,1.98
2023-02-02T12:04:32.890Z,2.10
2023-02-02T12:07:38.410Z,1.92
2023-02-02T12:10:36.817Z,1.67
2023-02-02T12:13:52.998Z,2.00
2023-02-02T12:17:03.894Z,1.77
2023-02-02T12:19:59.904Z,1.90
2023-02-02T12:23:22.120Z,1.85
2023-02-02T12:26:39.402Z,2.38
2023-02-02T12:29:49.551Z,2.03
2023-02-02T12:32:52.321Z,1.80
2023-02-02T12:36:23.692Z,1.70
2023-02-02T12:39:37.511Z,1.70
2023-02-02T12:42:48.410Z,1.90
2023-02-02T12:45:49.376Z,1.65
2023-02-02T12:49:26.296Z,1.52
2023-02-02T12:52:16.351Z,1.77
2023-02-02T12:55:21.905Z,1.75
2023-02-02T12:58:11.887Z,2.10
2023-02-02T13:01:25.942Z,2.05
2023-02-02T13:04:16.002Z,1.60
2023-02-02T13:07:40.899Z,1.85
2023-02-02T13:10:36.874Z,1.65
2023-02-02T13:13:24.604Z,1.80
2023-02-02T13:19:10.885Z,1.85
2023-02-02T13:21:51.942Z,2.15
2023-02-02T13:27:32.983Z,1.80
2023-02-02T13:30:23.989Z,1.83
2023-02-02T13:33:12.957Z,1.90
2023-02-02T13:36:03.834Z,1.63
2023-02-02T13:38:53.238Z,1.75
2023-02-02T13:41:34.022Z,1.55
2023-02-02T13:44:46.911Z,1.48
2023-02-02T13:47:45.915Z,1.50
2023-02-02T13:50:36.890Z,1.20
2023-02-02T13:53:55.069Z,1.58
2023-02-02T13:56:34.927Z,1.35
2023-02-02T13:59:49.864Z,1.40
2023-02-02T14:02:48.188Z,1.20
2023-02-02T14:05:48.020Z,1.48
2023-02-02T14:08:31.186Z,1.45
2023-02-02T14:11:28.559Z,1.23
2023-02-02T14:14:38.401Z,1.33
2023-02-02T14:17:28.481Z,0.95
2023-02-02T14:20:13.492Z,1.35
2023-02-02T14:23:01.176Z,0.73
2023-02-02T14:25:41.656Z,0.70
2023-02-02T14:28:51.185Z,0.80
2023-02-02T14:31:57.241Z,0.60
2023-02-02T14:34:48.257Z,1.05
2023-02-02T14:37:40.328Z,0.80
2023-02-02T14:40:47.287Z,0.57
2023-02-02T14:43:58.164Z,1.45
2023-02-02T14:46:40.509Z,0.70
2023-02-02T14:49:32.264Z,0.70
2023-02-02T14:52:23.114Z,0.70
2023-02-02T14:55:11.507Z,0.60
2023-02-02T14:58:08.392Z,0.90
2023-02-02T15:00:49.484Z,1.02
2023-02-02T15:06:52.429Z,1.00
2023-02-02T15:09:39.267Z,1.20
2023-02-02T15:12:37.861Z,1.20
2023-02-02T15:15:33.866Z,1.30
2023-02-02T15:18:30.895Z,1.50
2023-02-02T15:21:23.864Z,1.60
2023-02-02T15:24:04.928Z,1.50
2023-02-02T15:29:48.253Z,1.73
2023-02-02T15:32:37.010Z,2.00
2023-02-02T15:35:33.141Z,1.98
2023-02-02T15:38:27.275Z,1.80
2023-02-02T15:41:46.172Z,2.75
2023-02-02T15:44:37.499Z,1.92
2023-02-02T15:47:33.865Z,2.38
2023-02-02T15:50:20.348Z,2.15
2023-02-02T15:53:08.892Z,2.33
2023-02-02T15:55:55.901Z,2.20
2023-02-02T15:58:47.869Z,1.80
2023-02-02T16:01:33.021Z,1.83
2023-02-02T16:04:28.964Z,2.20
2023-02-02T16:07:23.447Z,2.03
2023-02-02T16:10:14.864Z,2.15
2023-02-02T16:13:01.930Z,1.83
2023-02-02T16:15:41.887Z,2.08
2023-02-02T16:18:22.613Z,2.15
2023-02-02T16:21:10.879Z,2.15
2023-02-02T16:23:58.891Z,2.08
2023-02-02T16:26:40.946Z,2.40
2023-02-02T16:29:28.875Z,2.45
2023-02-02T16:32:17.870Z,2.65
2023-02-02T16:35:06.951Z,2.85
2023-02-02T16:37:46.865Z,2.67
2023-02-02T16:40:29.337Z,2.60
2023-02-02T16:43:19.013Z,3.25
2023-02-02T16:46:18.954Z,2.90
2023-02-02T16:49:06.929Z,3.10
2023-02-02T16:52:12.867Z,2.60
2023-02-02T16:54:58.975Z,2.72
2023-02-02T16:57:45.861Z,2.70
2023-02-02T17:00:39.893Z,3.10
2023-02-02T17:03:20.650Z,2.97
2023-02-02T17:06:07.124Z,2.92
2023-02-02T17:08:47.765Z,3.17
2023-02-02T17:14:34.991Z,2.78
2023-02-02T17:17:15.872Z,2.85
2023-02-02T17:22:43.869Z,3.28
2023-02-02T17:25:41.988Z,3.15
2023-02-02T17:28:25.888Z,3.15
2023-02-02T17:31:09.514Z,3.28
2023-02-02T17:33:56.894Z,3.13
2023-02-02T17:36:37.409Z,2.08
2023-02-02T17:39:24.892Z,2.50
2023-02-02T17:42:06.452Z,3.50
2023-02-02T17:47:42.883Z,2.65
2023-02-02T17:50:24.558Z,2.20
2023-02-02T17:53:11.868Z,2.10
2023-02-02T17:55:53.362Z,2.30
2023-02-02T18:01:26.906Z,2.20
2023-02-02T18:04:07.708Z,1.75
2023-02-02T18:06:53.898Z,2.25
2023-02-02T18:09:34.467Z,2.38
2023-02-02T18:12:20.886Z,3.05
2023-02-02T18:17:49.028Z,2.72
2023-02-02T18:20:38.723Z,2.72
2023-02-02T18:23:18.907Z,2.35
2023-02-02T18:26:23.050Z,2.55
2023-02-02T18:29:02.878Z,2.55
2023-02-02T18:31:43.454Z,2.65
2023-02-02T18:34:29.895Z,2.45
2023-02-02T18:37:10.388Z,2.40
2023-02-02T18:39:56.884Z,2.65
2023-02-02T18:45:24.229Z,2.85
2023-02-02T18:50:50.900Z,3.35
2023-02-02T18:53:31.585Z,2.30
2023-02-02T18:56:19.874Z,2.60
2023-02-02T18:59:06.894Z,2.70
2023-02-02T19:04:33.899Z,2.33
2023-02-02T19:07:38.969Z,2.45
2023-02-02T19:10:26.886Z,2.40
2023-02-02T19:13:30.899Z,2.42
2023-02-02T19:16:33.891Z,3.33
2023-02-02T19:19:33.190Z,2.40
2023-02-02T19:22:26.892Z,2.53
2023-02-02T19:25:06.933Z,2.42
2023-02-02T19:27:53.883Z,2.30
2023-02-02T19:30:33.971Z,2.90
2023-02-02T19:33:23.892Z,2.25
2023-02-02T19:36:10.897Z,2.72
2023-02-02T19:42:17.860Z,2.83
2023-02-02T19:44:57.963Z,2.40
2023-02-02T19:47:45.870Z,2.50
2023-02-02T19:50:31.854Z,2.47
2023-02-02T19:53:27.895Z,2.65
2023-02-02T19:56:08.946Z,2.72
2023-02-02T19:58:55.887Z,2.45
2023-02-02T20:01:40.567Z,2.30
2023-02-02T20:04:26.878Z,2.63
2023-02-02T20:09:53.888Z,2.40
2023-02-02T20:15:39.895Z,2.40
2023-02-02T20:18:25.996Z,2.50
2023-02-02T20:21:24.872Z,2.38
2023-02-02T20:24:11.887Z,2.70
2023-02-02T20:29:51.887Z,2.67
2023-02-02T20:32:47.865Z,2.60
2023-02-02T20:35:38.882Z,2.38
2023-02-02T20:38:34.882Z,2.35
2023-02-02T20:41:28.887Z,2.35
2023-02-02T20:44:10.327Z,2.65
2023-02-02T20:46:56.875Z,2.03
2023-02-02T20:49:38.361Z,1.98
2023-02-02T20:52:30.974Z,2.10
2023-02-02T20:55:12.115Z,2.03
2023-02-02T20:57:58.886Z,2.50
2023-02-02T21:03:25.906Z,2.17
2023-02-02T21:08:57.897Z,2.22
2023-02-02T21:11:38.854Z,2.10
2023-02-02T21:14:25.907Z,2.25
2023-02-02T21:19:55.945Z,2.15
2023-02-02T21:22:36.402Z,2.28
2023-02-02T21:25:23.881Z,2.58
2023-02-02T21:28:10.972Z,2.00
2023-02-02T21:33:31.417Z,1.85
2023-02-02T21:36:45.881Z,2.00
2023-02-02T21:39:49.502Z,2.25
2023-02-02T21:42:29.896Z,2.20
2023-02-02T21:45:29.105Z,2.30
2023-02-02T21:48:19.889Z,2.30
2023-02-02T21:51:29.115Z,2.55
2023-02-02T21:54:33.917Z,2.38
2023-02-02T21:57:38.891Z,1.88
2023-02-02T22:00:39.914Z,2.40
2023-02-02T22:03:34.932Z,2.72
2023-02-02T22:06:33.969Z,2.38
2023-02-02T22:09:23.894Z,2.28
2023-02-02T22:12:05.949Z,2.20
2023-02-02T22:14:54.901Z,2.25
2023-02-02T22:17:52.882Z,2.20
2023-02-02T22:20:44.654Z,2.10
2023-02-02T22:23:29.884Z,1.80
2023-02-02T22:26:37.888Z,2.20
2023-02-02T22:29:24.464Z,2.13
2023-02-02T22:32:10.895Z,2.33
2023-02-02T22:34:57.908Z,1.85
2023-02-02T22:37:38.358Z,2.05
2023-02-02T22:40:29.161Z,3.08
2023-02-02T22:43:09.452Z,1.80
2023-02-02T22:45:56.988Z,2.10
2023-02-02T22:48:43.942Z,2.08
2023-02-02T22:51:23.896Z,1.95
2023-02-02T22:54:04.410Z,1.92
2023-02-02T22:56:50.883Z,1.90
2023-02-02T22:59:37.911Z,1.73
2023-02-02T23:02:17.956Z,2.22
2023-02-02T23:05:04.913Z,2.28
2023-02-02T23:07:45.957Z,1.95
2023-02-02T23:10:35.947Z,2.00
2023-02-02T23:13:15.958Z,2.67
2023-02-02T23:16:02.950Z,2.78
2023-02-02T23:18:42.967Z,1.92
2023-02-02T23:21:29.905Z,2.50
2023-02-02T23:26:56.893Z,1.90
2023-02-02T23:32:24.675Z,1.98
2023-02-02T23:35:11.242Z,2.20
2023-02-02T23:37:51.386Z,2.03
2023-02-02T23:40:52.906Z,2.47
2023-02-02T23:43:33.395Z,2.20
2023-02-02T23:46:19.959Z,2.15
2023-02-02T23:49:00.965Z,2.20
2023-02-02T23:54:36.887Z,2.00
2023-02-02T23:57:24.916Z,2.15
